TimeEST,TemperatureF,Dew PointF,Humidity,Sea Level PressureIn,VisibilityMPH,Wind Direction,Wind SpeedMPH,Gust SpeedMPH,PrecipitationIn,Events,Conditions,WindDirDegrees,DateUTC
12:15 AM,18.5,12.2,76,30.31,10.0,Calm,Calm,-,N/A,,Clear,0,2013-02-02 05:15:00
12:35 AM,17.6,12.7,81,30.31,10.0,Calm,Calm,-,N/A,,Clear,0,2013-02-02 05:35:00
12:55 AM,18.0,13.8,84,30.31,10.0,Calm,Calm,-,N/A,,Clear,0,2013-02-02 05:55:00
1:15 AM,17.4,12.7,82,30.31,10.0,Calm,Calm,-,N/A,,Clear,0,2013-02-02 06:15:00
1:35 AM,17.8,13.3,83,30.31,10.0,Calm,Calm,-,N/A,,Clear,0,2013-02-02 06:35:00
1:55 AM,18.1,12.9,80,30.30,10.0,Calm,Calm,-,N/A,,Clear,0,2013-02-02 06:55:00
2:15 AM,18.5,13.5,81,30.30,10.0,Calm,Calm,-,N/A,,Clear,0,2013-02-02 07:15:00
2:35 AM,18.3,13.3,81,30.29,10.0,Calm,Calm,-,N/A,,Clear,0,2013-02-02 07:35:00
2:55 AM,18.5,13.1,79,30.30,10.0,Calm,Calm,-,N/A,,Clear,0,2013-02-02 07:55:00
3:15 AM,18.5,13.8,82,30.29,10.0,Calm,Calm,-,N/A,,Clear,0,2013-02-02 08:15:00
3:35 AM,19.0,13.6,79,30.29,10.0,Calm,Calm,-,N/A,,Clear,0,2013-02-02 08:35:00
3:55 AM,19.2,13.6,79,30.28,10.0,Calm,Calm,-,N/A,,Clear,0,2013-02-02 08:55:00
4:15 AM,19.0,13.8,80,30.27,10.0,Calm,Calm,-,N/A,,Clear,0,2013-02-02 09:15:00
4:35 AM,19.2,14.0,80,30.27,10.0,Calm,Calm,-,N/A,,Clear,0,2013-02-02 09:35:00
4:55 AM,18.7,14.2,83,30.28,10.0,Calm,Calm,-,N/A,,Clear,0,2013-02-02 09:55:00
5:15 AM,18.1,14.0,84,30.28,10.0,Calm,Calm,-,N/A,,Clear,0,2013-02-02 10:15:00
5:35 AM,17.8,14.0,85,30.28,10.0,Calm,Calm,-,N/A,,Clear,0,2013-02-02 10:35:00
5:55 AM,17.6,13.6,84,30.28,10.0,Calm,Calm,-,N/A,,Clear,0,2013-02-02 10:55:00
6:15 AM,17.1,13.1,84,30.28,10.0,Calm,Calm,-,N/A,,Clear,0,2013-02-02 11:15:00
7:15 AM,16.7,13.5,87,30.28,10.0,Calm,Calm,-,N/A,,Clear,0,2013-02-02 12:15:00
7:35 AM,17.2,13.8,86,30.28,10.0,Calm,Calm,-,N/A,,Clear,0,2013-02-02 12:35:00
7:55 AM,17.6,14.0,86,30.28,10.0,Calm,Calm,-,N/A,,Mostly Cloudy,0,2013-02-02 12:55:00
8:15 AM,18.3,14.0,83,30.28,10.0,Calm,Calm,-,N/A,,Scattered Clouds,0,2013-02-02 13:15:00
8:35 AM,20.1,14.4,78,30.28,10.0,Calm,Calm,-,N/A,,Mostly Cloudy,0,2013-02-02 13:35:00
8:55 AM,21.2,14.9,77,30.28,10.0,Calm,Calm,-,N/A,,Overcast,0,2013-02-02 13:55:00
9:15 AM,23.5,14.5,69,30.27,10.0,Calm,Calm,-,N/A,,Overcast,0,2013-02-02 14:15:00
9:35 AM,24.8,11.3,57,30.27,10.0,Calm,Calm,-,N/A,,Mostly Cloudy,0,2013-02-02 14:35:00
9:55 AM,27.3,12.7,54,30.25,10.0,Calm,Calm,-,N/A,,Scattered Clouds,0,2013-02-02 14:55:00
10:15 AM,29.7,13.3,51,30.23,10.0,ENE,3.5,-,N/A,,Scattered Clouds,60,2013-02-02 15:15:00
10:35 AM,30.6,9.7,42,30.24,10.0,Calm,Calm,-,N/A,,Mostly Cloudy,0,2013-02-02 15:35:00
10:55 AM,30.7,5.7,35,30.25,10.0,Calm,Calm,-,N/A,,Overcast,0,2013-02-02 15:55:00
11:15 AM,32.0,7.7,36,30.25,10.0,Calm,Calm,-,N/A,,Overcast,0,2013-02-02 16:15:00
11:35 AM,32.2,8.8,38,30.25,10.0,Calm,Calm,-,N/A,,Overcast,0,2013-02-02 16:35:00
11:55 AM,32.9,8.2,36,30.23,10.0,Calm,Calm,-,N/A,,Overcast,0,2013-02-02 16:55:00
12:15 PM,32.9,8.6,36,30.23,10.0,Calm,Calm,-,N/A,,Overcast,0,2013-02-02 17:15:00
12:35 PM,34.0,14.4,45,30.21,10.0,Calm,Calm,-,N/A,,Overcast,0,2013-02-02 17:35:00
12:55 PM,33.1,21.9,64,30.19,5.0,ESE,3.5,-,N/A,Snow,Light Snow,120,2013-02-02 17:55:00
1:15 PM,32.2,25.3,76,30.17,1.2,SE,4.6,-,N/A,Snow,Light Snow,130,2013-02-02 18:15:00
1:35 PM,31.6,27.0,83,30.16,1.5,NE,5.8,-,N/A,Snow,Light Snow,50,2013-02-02 18:35:00
1:55 PM,30.7,27.1,86,30.14,0.8,ENE,4.6,-,N/A,Snow,Light Snow,60,2013-02-02 18:55:00
2:15 PM,30.7,27.7,88,30.13,1.0,Calm,Calm,-,N/A,Snow,Light Snow,0,2013-02-02 19:15:00
2:35 PM,30.7,27.9,89,30.12,3.0,Calm,Calm,-,0.01,Snow,Light Snow,0,2013-02-02 19:35:00
2:55 PM,30.7,27.5,88,30.11,1.5,Calm,Calm,-,0.01,Snow,Light Snow,0,2013-02-02 19:55:00
3:15 PM,30.7,27.5,88,30.11,2.5,Calm,Calm,-,N/A,Snow,Light Snow,0,2013-02-02 20:15:00
3:35 PM,30.9,28.2,90,30.09,0.2,Calm,Calm,-,0.01,Snow,Snow,0,2013-02-02 20:35:00
3:55 PM,30.7,28.6,92,30.09,1.5,Calm,Calm,-,0.03,Snow,Light Snow,0,2013-02-02 20:55:00
4:15 PM,30.7,28.6,92,30.08,1.0,Calm,Calm,-,0.01,Snow,Light Snow,0,2013-02-02 21:15:00
4:35 PM,30.7,28.4,91,30.08,1.2,Calm,Calm,-,0.04,Snow,Light Snow,0,2013-02-02 21:35:00
4:55 PM,30.7,28.8,92,30.08,3.0,Calm,Calm,-,0.04,Snow,Light Snow,0,2013-02-02 21:55:00
5:15 PM,30.7,28.4,91,30.08,10.0,Calm,Calm,-,N/A,,Overcast,0,2013-02-02 22:15:00
5:35 PM,30.7,27.9,89,30.06,10.0,Calm,Calm,-,N/A,Snow,Light Snow,0,2013-02-02 22:35:00
5:55 PM,30.4,27.7,90,30.06,3.0,Calm,Calm,-,N/A,Snow,Light Snow,0,2013-02-02 22:55:00
6:15 PM,30.2,28.0,92,30.07,2.0,Calm,Calm,-,0.01,Snow,Light Snow,0,2013-02-02 23:15:00
6:35 PM,29.8,28.0,93,30.07,1.8,Calm,Calm,-,0.01,Snow,Light Snow,0,2013-02-02 23:35:00
6:55 PM,29.8,28.2,94,30.06,3.0,NE,3.5,-,0.02,Snow,Light Snow,40,2013-02-02 23:55:00
7:15 PM,30.2,28.4,93,30.07,3.0,NE,3.5,-,N/A,Snow,Light Snow,50,2013-02-03 00:15:00
7:35 PM,30.2,28.8,94,30.07,1.5,Calm,Calm,-,N/A,Snow,Light Snow,0,2013-02-03 00:35:00
7:55 PM,30.2,28.9,95,30.08,7.0,Calm,Calm,-,0.01,Snow,Light Snow,0,2013-02-03 00:55:00
8:15 PM,30.6,29.3,95,30.08,10.0,Calm,Calm,-,N/A,,Overcast,0,2013-02-03 01:15:00
8:35 PM,30.7,29.3,94,30.07,10.0,Calm,Calm,-,N/A,,Overcast,0,2013-02-03 01:35:00
8:55 PM,30.7,29.3,94,30.07,7.0,Calm,Calm,-,N/A,,Overcast,0,2013-02-03 01:55:00
9:15 PM,30.6,29.1,94,30.08,10.0,Calm,Calm,-,N/A,,Overcast,0,2013-02-03 02:15:00
9:35 PM,30.4,29.1,95,30.08,10.0,Calm,Calm,-,N/A,,Overcast,0,2013-02-03 02:35:00
9:55 PM,30.6,29.3,95,30.07,10.0,Calm,Calm,-,N/A,,Overcast,0,2013-02-03 02:55:00
10:15 PM,30.2,29.3,96,30.07,10.0,Calm,Calm,-,N/A,,Overcast,0,2013-02-03 03:15:00
10:35 PM,30.2,29.1,96,30.06,7.0,Calm,Calm,-,N/A,,Overcast,0,2013-02-03 03:35:00
10:55 PM,30.0,28.9,96,30.05,7.0,Calm,Calm,-,N/A,,Overcast,0,2013-02-03 03:55:00
11:15 PM,30.2,29.3,96,30.05,7.0,Calm,Calm,-,N/A,,Overcast,0,2013-02-03 04:15:00
11:35 PM,30.2,29.3,96,30.04,7.0,Calm,Calm,-,N/A,,Overcast,0,2013-02-03 04:35:00
11:55 PM,30.2,29.3,96,30.04,7.0,Calm,Calm,-,N/A,,Overcast,0,2013-02-03 04:55:00